Time;durP1;ratioP1;P1;durP2;ratioP2;P2;SDS_P1;SDS_P2;PMS_P1;PMS_P2;Temp;Humidity;BMP_temperature;BMP_pressure;BME280_temperature;BME280_humidity;BME280_pressure;Samples;Min_cycle;Max_cycle;Signal;HPM_P1;HPM_P2
2022/04/11 00:00:01;;;;;;;19.38;2.60;;;;;;;;;;5041728;28;20141;-63
2022/04/11 00:02:28;;;;;;;29.23;4.53;;;;;;;;;;5041263;28;20081;-63
2022/04/11 00:04:54;;;;;;;19.23;2.80;;;;;;;;;;5041873;28;20045;-63
2022/04/11 00:07:21;;;;;;;21.70;3.25;;;;;;;;;;5040733;28;20084;-63
2022/04/11 00:09:53;;;;;;;14.30;2.30;;;;;;;;;;5041920;28;20088;-63
2022/04/11 00:12:20;;;;;;;16.45;2.53;;;;;;;;;;5039798;28;20576;-63
2022/04/11 00:14:46;;;;;;;15.98;2.88;;;;;;;;;;5036200;28;20081;-63
2022/04/11 00:17:13;;;;;;;20.10;2.55;;;;;;;;;;5038431;28;20135;-63
2022/04/11 00:19:39;;;;;;;15.45;2.97;;;;;;;;;;5039625;28;20052;-63
2022/04/11 00:22:05;;;;;;;20.42;3.40;;;;;;;;;;5038094;28;20049;-63
2022/04/11 00:24:32;;;;;;;17.83;3.13;;;;;;;;;;5039907;28;20049;-63
2022/04/11 00:26:59;;;;;;;11.30;2.03;;;;;;;;;;5039855;28;20123;-63
2022/04/11 00:29:25;;;;;;;24.83;3.47;;;;;;;;;;5040121;28;20140;-63
2022/04/11 00:31:58;;;;;;;17.40;2.83;;;;;;;;;;5040679;28;20083;-63
2022/04/11 00:34:25;;;;;;;15.02;2.72;;;;;;;;;;5040689;28;20201;-63
2022/04/11 00:36:51;;;;;;;18.45;2.53;;;;;;;;;;5040062;28;20135;-63
2022/04/11 00:39:18;;;;;;;17.67;2.65;;;;;;;;;;5041771;28;20139;-63
2022/04/11 00:41:45;;;;;;;23.90;2.78;;;;;;;;;;5039927;28;20151;-63
2022/04/11 00:44:11;;;;;;;19.60;3.15;;;;;;;;;;5035368;28;20104;-63
2022/04/11 00:46:44;;;;;;;12.63;2.35;;;;;;;;;;5039381;28;20082;-63
2022/04/11 00:49:11;;;;;;;17.50;3.10;;;;;;;;;;5040932;28;20050;-63
2022/04/11 00:51:38;;;;;;;21.00;2.80;;;;;;;;;;5038368;28;20353;-63
2022/04/11 00:54:09;;;;;;;30.83;3.88;;;;;;;;;;5038006;28;20128;-63
2022/04/11 00:56:35;;;;;;;17.15;3.00;;;;;;;;;;5036379;28;20087;-63
2022/04/11 00:59:02;;;;;;;22.90;3.30;;;;;;;;;;5040288;28;20076;-63
2022/04/11 01:01:29;;;;;;;21.55;2.72;;;;;;;;;;5035581;28;20141;-63
2022/04/11 01:03:56;;;;;;;16.73;3.22;;;;;;;;;;5038801;28;20063;-63
2022/04/11 01:06:22;;;;;;;13.63;3.05;;;;;;;;;;5039497;28;20092;-63
2022/04/11 01:08:49;;;;;;;23.10;2.88;;;;;;;;;;5038266;28;20132;-63
2022/04/11 01:11:15;;;;;;;17.15;2.63;;;;;;;;;;5039610;28;20084;-63
2022/04/11 01:13:42;;;;;;;24.92;2.90;;;;;;;;;;5029160;28;20145;-63
2022/04/11 01:16:25;;;;;;;14.52;2.92;;;;;;;;;;5041260;28;20080;-63
2022/04/11 01:18:51;;;;;;;29.45;4.68;;;;;;;;;;5040569;28;20095;-63
2022/04/11 01:21:20;;;;;;;20.77;3.47;;;;;;;;;;5040198;28;20668;-63
2022/04/11 01:23:47;;;;;;;21.02;3.15;;;;;;;;;;5039352;28;20132;-63
2022/04/11 01:26:14;;;;;;;15.73;2.78;;;;;;;;;;5040212;28;20136;-63
2022/04/11 01:28:48;;;;;;;14.07;3.67;;;;;;;;;;5043903;28;20083;-63
2022/04/11 01:31:15;;;;;;;12.18;2.42;;;;;;;;;;5041855;28;20073;-63
2022/04/11 01:33:42;;;;;;;14.52;3.08;;;;;;;;;;5041586;28;20552;-63
2022/04/11 01:36:09;;;;;;;13.35;2.20;;;;;;;;;;5041061;28;20049;-62
2022/04/11 01:38:35;;;;;;;23.00;3.53;;;;;;;;;;5039863;28;20128;-63
2022/04/11 01:41:02;;;;;;;18.20;3.28;;;;;;;;;;5042508;28;20144;-63
2022/04/11 01:43:28;;;;;;;17.05;2.47;;;;;;;;;;5042290;28;20084;-63
2022/04/11 01:45:55;;;;;;;20.45;2.95;;;;;;;;;;5044439;28;20182;-63
2022/04/11 01:48:21;;;;;;;18.13;2.43;;;;;;;;;;5038949;28;20148;-63
2022/04/11 01:50:48;;;;;;;14.05;3.10;;;;;;;;;;5039267;28;20053;-63
2022/04/11 01:53:18;;;;;;;17.33;3.38;;;;;;;;;;5044137;28;20069;-63
2022/04/11 01:55:45;;;;;;;15.80;2.70;;;;;;;;;;5041164;28;20083;-63
2022/04/11 01:58:18;;;;;;;23.17;3.03;;;;;;;;;;5039000;28;20128;-63
2022/04/11 02:00:45;;;;;;;16.13;3.38;;;;;;;;;;5040664;28;20573;-63
2022/04/11 02:03:11;;;;;;;18.90;2.78;;;;;;;;;;5038935;28;20135;-63
2022/04/11 02:05:39;;;;;;;20.35;3.03;;;;;;;;;;5040180;28;20473;-63
2022/04/11 02:08:07;;;;;;;;;;;;;;;;;;5042806;28;20461;-63
2022/04/11 02:10:35;;;;;;;32.70;3.92;;;;;;;;;;5040333;28;20384;-63
2022/04/11 02:13:02;;;;;;;27.33;3.20;;;;;;;;;;5040775;28;20136;-63
2022/04/11 02:15:29;;;;;;;19.80;2.95;;;;;;;;;;5041618;28;20159;-63
2022/04/11 02:17:55;;;;;;;17.30;3.00;;;;;;;;;;5039757;28;20135;-63
2022/04/11 02:20:22;;;;;;;24.45;3.33;;;;;;;;;;5044022;28;20136;-63
2022/04/11 02:22:55;;;;;;;14.70;3.20;;;;;;;;;;5039402;28;20168;-63
2022/04/11 02:25:25;;;;;;;16.08;2.92;;;;;;;;;;5036750;28;20124;-63
2022/04/11 02:27:54;;;;;;;15.13;3.45;;;;;;;;;;5043250;28;20087;-63
2022/04/11 02:30:24;;;;;;;28.58;3.20;;;;;;;;;;5036771;28;20053;-63
2022/04/11 02:32:54;;;;;;;24.08;3.15;;;;;;;;;;5038784;28;20500;-63
2022/04/11 02:35:21;;;;;;;21.73;2.95;;;;;;;;;;5030663;28;20124;-62
2022/04/11 02:37:48;;;;;;;13.10;1.67;;;;;;;;;;5040700;28;20461;-62
2022/04/11 02:40:15;;;;;;;21.23;3.15;;;;;;;;;;5043153;28;20083;-63
2022/04/11 02:42:42;;;;;;;8.03;2.13;;;;;;;;;;5039251;28;20055;-63
2022/04/11 02:45:12;;;;;;;17.88;3.47;;;;;;;;;;5038134;28;20334;-63
2022/04/11 02:47:45;;;;;;;27.08;4.07;;;;;;;;;;5039209;28;20516;-63
2022/04/11 02:50:11;;;;;;;20.52;3.15;;;;;;;;;;5043633;28;20496;-63
2022/04/11 02:52:37;;;;;;;21.35;3.20;;;;;;;;;;5040433;28;20524;-63
2022/04/11 02:55:10;;;;;;;21.48;4.20;;;;;;;;;;5040129;28;20463;-63
2022/04/11 02:57:38;;;;;;;18.75;3.17;;;;;;;;;;5039322;28;20088;-62
2022/04/11 03:00:06;;;;;;;22.52;3.22;;;;;;;;;;5041706;28;20489;-63
2022/04/11 03:02:33;;;;;;;11.75;2.83;;;;;;;;;;5042764;28;20091;-63
2022/04/11 03:04:59;;;;;;;22.42;3.55;;;;;;;;;;5037850;28;20064;-63
2022/04/11 03:07:27;;;;;;;20.00;3.00;;;;;;;;;;5026751;28;20137;-63
2022/04/11 03:09:55;;;;;;;20.17;3.15;;;;;;;;;;5041119;28;20132;-63
2022/04/11 03:12:22;;;;;;;16.20;3.42;;;;;;;;;;5041179;28;20129;-63
2022/04/11 03:14:49;;;;;;;20.70;3.03;;;;;;;;;;5041891;28;20127;-63
2022/04/11 03:17:16;;;;;;;22.55;3.45;;;;;;;;;;5041814;28;20407;-63
2022/04/11 03:19:43;;;;;;;19.93;3.17;;;;;;;;;;5043914;28;20084;-63
2022/04/11 03:22:10;;;;;;;21.77;3.25;;;;;;;;;;5035277;28;20564;-63
2022/04/11 03:24:37;;;;;;;18.40;3.45;;;;;;;;;;5039819;28;20466;-63
2022/04/11 03:27:04;;;;;;;16.95;3.13;;;;;;;;;;5036990;28;20092;-62
2022/04/11 03:29:30;;;;;;;27.10;3.20;;;;;;;;;;5037649;28;20083;-62
2022/04/11 03:32:04;;;;;;;24.17;3.45;;;;;;;;;;5039780;28;20068;-63
2022/04/11 03:34:30;;;;;;;13.18;2.35;;;;;;;;;;5039369;28;20132;-62
2022/04/11 03:36:57;;;;;;;18.30;3.10;;;;;;;;;;5038406;28;20137;-62
2022/04/11 03:39:24;;;;;;;25.58;2.65;;;;;;;;;;5040680;28;20087;-63
2022/04/11 03:41:50;;;;;;;19.52;3.42;;;;;;;;;;5040124;28;20145;-62
2022/04/11 03:44:16;;;;;;;19.90;3.78;;;;;;;;;;5041897;28;20046;-62
2022/04/11 03:46:49;;;;;;;22.63;3.03;;;;;;;;;;5038475;28;20642;-63
2022/04/11 03:49:16;;;;;;;22.10;3.97;;;;;;;;;;5040445;28;20128;-62
2022/04/11 03:51:44;;;;;;;24.00;4.07;;;;;;;;;;5039504;28;20465;-62
2022/04/11 03:54:13;;;;;;;16.17;3.00;;;;;;;;;;5037327;28;20135;-63
2022/04/11 03:56:40;;;;;;;22.48;3.15;;;;;;;;;;5037816;28;20140;-62
2022/04/11 03:59:06;;;;;;;24.83;2.90;;;;;;;;;;5040499;28;20081;-62
2022/04/11 04:01:36;;;;;;;24.95;3.40;;;;;;;;;;5037285;28;20123;-62
2022/04/11 04:04:03;;;;;;;24.80;3.70;;;;;;;;;;5038517;28;20493;-63
2022/04/11 04:06:30;;;;;;;21.58;2.55;;;;;;;;;;5035950;28;20136;-63
2022/04/11 04:08:59;;;;;;;13.57;3.25;;;;;;;;;;5040056;28;20618;-63
2022/04/11 04:11:25;;;;;;;12.47;2.67;;;;;;;;;;5040499;28;20132;-63
2022/04/11 04:13:52;;;;;;;14.73;3.15;;;;;;;;;;5037725;28;20072;-62
2022/04/11 04:16:20;;;;;;;18.95;3.28;;;;;;;;;;5042170;28;20727;-62
2022/04/11 04:18:46;;;;;;;14.97;2.83;;;;;;;;;;5038788;28;20051;-63
2022/04/11 04:21:12;;;;;;;34.95;4.03;;;;;;;;;;5039757;28;20132;-63
2022/04/11 04:23:45;;;;;;;34.75;3.67;;;;;;;;;;5038062;28;20140;-63
2022/04/11 04:26:12;;;;;;;35.75;3.92;;;;;;;;;;5039954;28;20070;-63
2022/04/11 04:28:39;;;;;;;23.05;3.30;;;;;;;;;;5038919;28;20145;-63
2022/04/11 04:31:12;;;;;;;17.77;3.05;;;;;;;;;;5040769;28;20095;-63
2022/04/11 04:33:38;;;;;;;17.52;3.03;;;;;;;;;;5039329;28;20044;-63
2022/04/11 04:36:05;;;;;;;8.88;2.45;;;;;;;;;;5036204;28;20054;-63
2022/04/11 04:38:32;;;;;;;18.15;3.30;;;;;;;;;;5037309;28;20084;-63
2022/04/11 04:40:58;;;;;;;20.48;2.90;;;;;;;;;;5041227;28;20080;-63
2022/04/11 04:43:26;;;;;;;20.25;3.33;;;;;;;;;;5037864;28;20046;-63
2022/04/11 04:45:54;;;;;;;17.60;2.78;;;;;;;;;;5036163;28;20467;-63
2022/04/11 04:48:20;;;;;;;19.33;2.78;;;;;;;;;;5037706;28;20160;-63
2022/04/11 04:50:47;;;;;;;10.93;3.33;;;;;;;;;;5039416;28;20156;-63
2022/04/11 04:53:16;;;;;;;13.73;3.05;;;;;;;;;;5034772;28;20505;-63
2022/04/11 04:55:43;;;;;;;16.35;2.63;;;;;;;;;;5041438;28;20081;-63
2022/04/11 04:58:09;;;;;;;13.48;2.40;;;;;;;;;;5041704;28;20080;-63
2022/04/11 05:00:36;;;;;;;8.15;2.25;;;;;;;;;;5046874;28;20072;-63
2022/04/11 05:03:02;;;;;;;13.87;2.70;;;;;;;;;;5037875;28;20524;-63
2022/04/11 05:05:29;;;;;;;11.70;2.60;;;;;;;;;;5039339;28;20165;-63
2022/04/11 05:07:56;;;;;;;16.83;2.15;;;;;;;;;;5039201;28;20144;-63
2022/04/11 05:10:22;;;;;;;11.73;2.95;;;;;;;;;;5043027;28;20181;-63
2022/04/11 05:12:49;;;;;;;20.95;3.58;;;;;;;;;;5037590;28;20151;-63
2022/04/11 05:15:16;;;;;;;18.83;3.00;;;;;;;;;;5038561;28;20052;-63
2022/04/11 05:17:42;;;;;;;12.02;2.35;;;;;;;;;;5038893;28;20144;-64
2022/04/11 05:20:09;;;;;;;13.45;2.60;;;;;;;;;;5041757;28;20135;-63
2022/04/11 05:22:37;;;;;;;22.02;2.80;;;;;;;;;;5039073;28;20511;-64
2022/04/11 05:25:04;;;;;;;14.55;2.42;;;;;;;;;;5042736;28;20110;-63
2022/04/11 05:27:31;;;;;;;9.93;2.55;;;;;;;;;;5040020;28;20084;-64
2022/04/11 05:30:05;;;;;;;16.55;3.00;;;;;;;;;;5040557;28;20132;-64
2022/04/11 05:32:33;;;;;;;7.40;2.45;;;;;;;;;;5038203;28;20046;-64
2022/04/11 05:35:00;;;;;;;12.27;2.85;;;;;;;;;;5036155;28;20165;-64
2022/04/11 05:37:27;;;;;;;12.27;2.60;;;;;;;;;;5036720;28;20053;-64
2022/04/11 05:39:53;;;;;;;9.73;1.63;;;;;;;;;;5035296;28;20136;-64
2022/04/11 05:42:19;;;;;;;11.30;2.58;;;;;;;;;;5038647;28;20081;-64
2022/04/11 05:44:47;;;;;;;16.40;3.17;;;;;;;;;;5037280;28;20413;-64
2022/04/11 05:47:16;;;;;;;12.40;2.60;;;;;;;;;;5035254;28;20128;-65
2022/04/11 05:49:42;;;;;;;15.60;2.38;;;;;;;;;;5037244;28;20081;-65
2022/04/11 05:52:12;;;;;;;9.18;2.28;;;;;;;;;;5035752;28;20160;-65
2022/04/11 05:54:39;;;;;;;13.90;2.50;;;;;;;;;;5029670;28;20088;-65
2022/04/11 05:57:05;;;;;;;12.10;2.60;;;;;;;;;;5039261;28;20136;-65
2022/04/11 05:59:32;;;;;;;15.30;2.72;;;;;;;;;;5040115;28;20099;-65
2022/04/11 06:02:05;;;;;;;17.33;2.40;;;;;;;;;;5046016;28;20496;-65
2022/04/11 06:04:31;;;;;;;8.52;1.83;;;;;;;;;;5046615;28;20082;-65
2022/04/11 06:06:58;;;;;;;12.13;2.22;;;;;;;;;;5041357;28;20084;-66
2022/04/11 06:09:24;;;;;;;11.53;2.40;;;;;;;;;;5037459;28;20135;-65
2022/04/11 06:11:51;;;;;;;7.95;2.13;;;;;;;;;;5044115;28;20461;-65
2022/04/11 06:14:17;;;;;;;13.88;2.30;;;;;;;;;;5038011;28;20081;-65
2022/04/11 06:16:50;;;;;;;16.20;3.05;;;;;;;;;;5029313;28;20096;-65
2022/04/11 06:19:17;;;;;;;11.65;2.80;;;;;;;;;;5038637;28;20045;-65
2022/04/11 06:21:43;;;;;;;10.32;2.22;;;;;;;;;;5035087;28;20076;-65
2022/04/11 06:24:12;;;;;;;12.45;3.20;;;;;;;;;;5034936;28;20080;-66
2022/04/11 06:26:39;;;;;;;18.33;8.20;;;;;;;;;;5040327;28;20046;-65
2022/04/11 06:29:06;;;;;;;18.08;8.48;;;;;;;;;;5043520;28;20123;-66
2022/04/11 06:31:38;;;;;;;47.42;24.08;;;;;;;;;;5043779;28;20076;-66
2022/04/11 06:34:05;;;;;;;53.25;23.73;;;;;;;;;;5042472;28;20046;-66
2022/04/11 06:36:31;;;;;;;43.97;21.40;;;;;;;;;;5037529;28;20057;-66
2022/04/11 06:38:58;;;;;;;24.23;9.02;;;;;;;;;;5040582;28;20076;-66
2022/04/11 06:41:28;;;;;;;17.75;5.35;;;;;;;;;;5042058;28;20148;-66
2022/04/11 06:43:54;;;;;;;10.35;3.80;;;;;;;;;;5041404;28;20136;-67
2022/04/11 06:46:21;;;;;;;8.20;2.80;;;;;;;;;;5028148;28;20091;-67
2022/04/11 06:48:47;;;;;;;11.70;3.23;;;;;;;;;;5040402;28;20052;-67
2022/04/11 06:51:14;;;;;;;6.30;2.72;;;;;;;;;;5040970;28;20083;-67
2022/04/11 06:53:48;;;;;;;9.25;3.35;;;;;;;;;;5041046;28;20140;-67
2022/04/11 06:56:14;;;;;;;13.20;5.00;;;;;;;;;;5043398;28;20128;-67
2022/04/11 06:58:41;;;;;;;11.65;4.18;;;;;;;;;;5040510;28;20124;-67
2022/04/11 07:01:14;;;;;;;14.35;5.20;;;;;;;;;;5038459;28;20144;-68
2022/04/11 07:03:47;;;;;;;19.88;8.40;;;;;;;;;;5037880;28;20592;-68
2022/04/11 07:06:14;;;;;;;20.63;7.67;;;;;;;;;;5045475;28;20081;-68
2022/04/11 07:08:46;;;;;;;22.00;5.25;;;;;;;;;;5036911;28;20493;-68
2022/04/11 07:11:13;;;;;;;11.00;4.10;;;;;;;;;;5042770;28;20049;-68
2022/04/11 07:13:39;;;;;;;16.67;6.07;;;;;;;;;;5038944;28;20099;-68
2022/04/11 07:16:12;;;;;;;22.05;8.07;;;;;;;;;;5036378;28;20617;-69
2022/04/11 07:18:39;;;;;;;19.23;7.15;;;;;;;;;;5040389;28;20148;-69
2022/04/11 07:21:06;;;;;;;15.50;5.30;;;;;;;;;;5037259;28;20080;-69
2022/04/11 07:23:38;;;;;;;13.05;4.40;;;;;;;;;;5040874;28;20160;-69
2022/04/11 07:26:05;;;;;;;10.60;3.90;;;;;;;;;;5040737;28;20087;-69
2022/04/11 07:28:32;;;;;;;11.07;3.00;;;;;;;;;;5039427;28;20080;-69
2022/04/11 07:31:05;;;;;;;11.23;4.50;;;;;;;;;;5042845;28;20049;-69
2022/04/11 07:33:33;;;;;;;11.27;4.57;;;;;;;;;;5042987;28;20130;-70
2022/04/11 07:36:00;;;;;;;9.27;4.15;;;;;;;;;;5039292;28;20132;-70
2022/04/11 07:38:26;;;;;;;10.67;4.07;;;;;;;;;;5038587;28;20140;-70
2022/04/11 07:40:53;;;;;;;15.82;6.45;;;;;;;;;;5040615;28;20387;-71
2022/04/11 07:43:19;;;;;;;8.50;3.13;;;;;;;;;;5040675;28;20146;-71
2022/04/11 07:45:48;;;;;;;8.93;3.13;;;;;;;;;;5040527;28;20127;-71
2022/04/11 07:48:15;;;;;;;6.25;2.58;;;;;;;;;;5040233;28;20049;-71
2022/04/11 07:50:42;;;;;;;7.40;2.27;;;;;;;;;;5038072;28;20084;-71
2022/04/11 07:53:09;;;;;;;;;;;;;;;;;;5040813;28;20335;-71
2022/04/11 07:55:36;;;;;;;7.95;2.75;;;;;;;;;;5038285;28;20420;-71
2022/04/11 07:58:02;;;;;;;8.52;2.30;;;;;;;;;;5041561;28;20670;-71
2022/04/11 08:00:29;;;;;;;6.85;1.80;;;;;;;;;;5044921;28;20891;-72
2022/04/11 08:02:56;;;;;;;7.40;1.85;;;;;;;;;;5038618;28;20547;-72
2022/04/11 08:05:22;;;;;;;;;;;;;;;;;;5040453;28;20060;-72
2022/04/11 08:07:55;;;;;;;5.45;1.40;;;;;;;;;;5035760;28;19974;-72
2022/04/11 08:10:22;;;;;;;10.57;1.70;;;;;;;;;;5041401;28;20077;-72
2022/04/11 08:12:52;;;;;;;4.47;1.40;;;;;;;;;;5039122;28;20172;-72
2022/04/11 08:15:25;;;;;;;11.18;3.15;;;;;;;;;;5043749;28;20335;-72
2022/04/11 08:17:53;;;;;;;4.28;1.35;;;;;;;;;;5037949;28;20111;-72
2022/04/11 08:20:20;;;;;;;6.30;1.70;;;;;;;;;;5054330;28;20195;-72
2022/04/11 08:22:51;;;;;;;3.97;1.77;;;;;;;;;;5037910;28;20084;-72
2022/04/11 08:25:18;;;;;;;5.30;1.92;;;;;;;;;;5033622;28;20512;-72
2022/04/11 08:27:44;;;;;;;5.90;1.63;;;;;;;;;;5040049;28;20136;-73
2022/04/11 08:30:17;;;;;;;8.05;2.13;;;;;;;;;;5033144;28;20076;-73
2022/04/11 08:32:48;;;;;;;4.83;1.63;;;;;;;;;;5039473;28;20060;-73
2022/04/11 08:35:15;;;;;;;4.15;1.45;;;;;;;;;;5037326;28;20468;-73
2022/04/11 08:37:45;;;;;;;7.93;1.60;;;;;;;;;;5037827;28;20117;-71
2022/04/11 08:40:16;;;;;;;5.03;1.48;;;;;;;;;;5040175;28;20045;-71
2022/04/11 08:42:43;;;;;;;7.22;2.60;;;;;;;;;;5038379;28;20576;-71
2022/04/11 08:45:13;;;;;;;5.60;1.80;;;;;;;;;;5056717;28;20049;-71
2022/04/11 08:47:41;;;;;;;6.93;1.48;;;;;;;;;;5038939;28;20428;-71
2022/04/11 08:50:08;;;;;;;5.20;1.63;;;;;;;;;;5039635;28;20084;-71
2022/04/11 08:52:36;;;;;;;5.57;1.48;;;;;;;;;;5037648;28;20077;-71
2022/04/11 08:55:03;;;;;;;3.20;1.43;;;;;;;;;;5036438;28;20087;-71
2022/04/11 08:57:30;;;;;;;7.22;1.77;;;;;;;;;;5037364;28;20056;-71
2022/04/11 09:00:02;;;;;;;6.35;1.65;;;;;;;;;;5039345;28;20080;-71
2022/04/11 09:02:33;;;;;;;5.95;1.55;;;;;;;;;;5039335;28;20080;-71
2022/04/11 09:04:59;;;;;;;3.33;1.35;;;;;;;;;;5037868;28;20132;-71
2022/04/11 09:07:27;;;;;;;8.00;1.63;;;;;;;;;;5034810;28;20096;-72
2022/04/11 09:09:57;;;;;;;2.65;1.30;;;;;;;;;;5044124;28;20470;-72
2022/04/11 09:12:24;;;;;;;5.75;1.60;;;;;;;;;;5040172;28;20409;-71
2022/04/11 09:14:51;;;;;;;5.35;1.50;;;;;;;;;;5039404;28;20166;-72
2022/04/11 09:17:18;;;;;;;4.07;1.52;;;;;;;;;;5039787;28;20088;-72
2022/04/11 09:19:45;;;;;;;1.95;1.30;;;;;;;;;;5039847;28;20072;-72
2022/04/11 09:22:31;;;;;;;4.38;1.33;;;;;;;;;;5036613;28;20052;-72
2022/04/11 09:25:04;;;;;;;4.73;1.50;;;;;;;;;;5041379;28;20813;-72
2022/04/11 09:27:31;;;;;;;6.38;1.50;;;;;;;;;;5041670;28;20315;-72
2022/04/11 09:29:57;;;;;;;4.20;1.40;;;;;;;;;;5036887;28;20184;-72
2022/04/11 09:32:25;;;;;;;4.93;1.50;;;;;;;;;;5052558;28;20746;-72
2022/04/11 09:34:54;;;;;;;2.33;1.05;;;;;;;;;;5038666;28;20204;-72
2022/04/11 09:37:20;;;;;;;1.92;1.00;;;;;;;;;;5043211;28;20105;-71
2022/04/11 09:39:55;;;;;;;3.20;1.27;;;;;;;;;;5041624;28;20640;-72
2022/04/11 09:42:31;;;;;;;3.08;1.10;;;;;;;;;;5042851;28;20045;-72
2022/04/11 09:45:05;;;;;;;3.63;1.10;;;;;;;;;;5043827;28;20091;-72
2022/04/11 09:47:58;;;;;;;6.68;1.25;;;;;;;;;;5042562;28;20059;-72
2022/04/11 09:50:27;;;;;;;3.80;1.67;;;;;;;;;;5043203;28;20083;-72
2022/04/11 09:53:05;;;;;;;3.38;1.17;;;;;;;;;;5043808;28;20131;-72
2022/04/11 09:55:38;;;;;;;3.70;1.30;;;;;;;;;;5042067;28;20122;-72
2022/04/11 09:58:04;;;;;;;3.25;1.23;;;;;;;;;;5042340;28;20136;-73
2022/04/11 10:00:42;;;;;;;5.43;1.42;;;;;;;;;;5043978;28;20136;-73
2022/04/11 10:03:09;;;;;;;3.45;1.60;;;;;;;;;;5040926;28;20049;-73
2022/04/11 10:05:36;;;;;;;4.93;1.60;;;;;;;;;;5042970;28;20136;-73
2022/04/11 10:08:04;;;;;;;6.57;1.58;;;;;;;;;;5041208;28;20128;-73
2022/04/11 10:10:31;;;;;;;4.35;1.45;;;;;;;;;;5044708;28;20803;-73
2022/04/11 10:12:58;;;;;;;5.13;1.70;;;;;;;;;;5042106;28;20087;-73
2022/04/11 10:15:25;;;;;;;2.75;1.15;;;;;;;;;;5039382;28;20096;-73
2022/04/11 10:17:58;;;;;;;2.85;1.48;;;;;;;;;;5045658;28;20041;-73
2022/04/11 10:20:29;;;;;;;3.92;1.15;;;;;;;;;;5041899;28;20077;-73
2022/04/11 10:22:57;;;;;;;2.30;1.17;;;;;;;;;;5043348;28;20091;-73
2022/04/11 10:25:24;;;;;;;5.55;1.45;;;;;;;;;;5037232;28;20144;-74
2022/04/11 10:28:13;;;;;;;4.57;1.60;;;;;;;;;;5042087;28;20123;-73
2022/04/11 10:30:41;;;;;;;3.05;1.20;;;;;;;;;;5040723;28;20052;-73
2022/04/11 10:33:11;;;;;;;6.93;1.75;;;;;;;;;;5040113;28;20148;-74
2022/04/11 10:35:42;;;;;;;3.13;1.30;;;;;;;;;;5031883;28;20053;-74
2022/04/11 10:38:09;;;;;;;2.67;1.20;;;;;;;;;;5041175;28;20124;-74
2022/04/11 10:40:36;;;;;;;;;;;;;;;;;;5041427;28;20172;-74
2022/04/11 10:43:08;;;;;;;4.47;1.10;;;;;;;;;;5037128;28;19963;-74
2022/04/11 10:45:35;;;;;;;4.20;1.10;;;;;;;;;;5038036;28;20048;-74
2022/04/11 10:48:03;;;;;;;1.92;1.20;;;;;;;;;;5038700;28;20045;-74
2022/04/11 10:50:33;;;;;;;4.00;1.40;;;;;;;;;;5043469;28;20088;-75
2022/04/11 10:53:24;;;;;;;4.50;1.00;;;;;;;;;;5043495;28;20077;-75
2022/04/11 10:56:05;;;;;;;5.40;1.45;;;;;;;;;;5042439;28;20087;-76
2022/04/11 10:58:40;;;;;;;3.60;1.30;;;;;;;;;;5041157;28;20115;-76
2022/04/11 11:01:14;;;;;;;5.20;1.55;;;;;;;;;;5041211;28;20104;-76
2022/04/11 11:03:57;;;;;;;3.13;1.30;;;;;;;;;;5046005;28;20049;-78
2022/04/11 11:06:24;;;;;;;3.42;1.02;;;;;;;;;;5037354;28;20091;-76
2022/04/11 11:08:51;;;;;;;3.35;1.33;;;;;;;;;;5041129;28;20080;-76
2022/04/11 11:11:21;;;;;;;4.03;1.33;;;;;;;;;;5040655;28;20490;-77
2022/04/11 11:13:56;;;;;;;3.65;1.20;;;;;;;;;;5032137;28;20472;-76
2022/04/11 11:16:22;;;;;;;3.20;1.20;;;;;;;;;;5045703;28;20133;-76
2022/04/11 11:19:10;;;;;;;4.50;1.13;;;;;;;;;;5040745;28;20049;-77
2022/04/11 11:21:37;;;;;;;1.58;1.00;;;;;;;;;;5040513;28;20126;-77
2022/04/11 11:24:03;;;;;;;3.13;1.30;;;;;;;;;;5038581;28;20060;-77
2022/04/11 11:26:48;;;;;;;1.38;0.90;;;;;;;;;;5043489;28;20049;-76
2022/04/11 11:29:41;;;;;;;1.45;0.77;;;;;;;;;;5039868;28;20133;-76
2022/04/11 11:32:09;;;;;;;3.35;1.17;;;;;;;;;;5036795;28;20057;-76
2022/04/11 11:34:37;;;;;;;2.05;1.23;;;;;;;;;;5038542;28;20048;-76
2022/04/11 11:37:07;;;;;;;4.72;1.20;;;;;;;;;;5038388;28;20127;-76
2022/04/11 11:39:37;;;;;;;2.63;0.95;;;;;;;;;;5038173;28;20053;-75
2022/04/11 11:42:09;;;;;;;2.83;1.30;;;;;;;;;;5039070;28;20056;-75
2022/04/11 11:44:42;;;;;;;2.65;1.10;;;;;;;;;;5039573;28;20187;-75
2022/04/11 11:47:10;;;;;;;2.40;1.08;;;;;;;;;;5038446;28;20046;-75
2022/04/11 11:49:41;;;;;;;2.20;1.13;;;;;;;;;;5039426;28;20540;-74
2022/04/11 11:52:11;;;;;;;4.05;1.15;;;;;;;;;;5040426;28;20069;-74
2022/04/11 11:54:40;;;;;;;5.75;1.30;;;;;;;;;;5037077;28;20089;-74
2022/04/11 11:57:20;;;;;;;3.17;1.17;;;;;;;;;;5038313;28;20049;-74
2022/04/11 11:59:53;;;;;;;2.28;1.13;;;;;;;;;;5039294;28;20887;-74
2022/04/11 12:05:16;;;;;;;4.70;1.35;;;;;;;;;;5041228;28;20049;-74
2022/04/11 12:07:49;;;;;;;6.22;1.55;;;;;;;;;;5039879;28;20830;-73
2022/04/11 12:10:17;;;;;;;3.70;1.33;;;;;;;;;;5039631;28;20088;-74
2022/04/11 12:12:43;;;;;;;;;;;;;;;;;;5039834;28;20045;-74
2022/04/11 12:15:17;;;;;;;3.63;1.27;;;;;;;;;;5035192;28;19920;-74
2022/04/11 12:17:49;;;;;;;6.03;1.75;;;;;;;;;;5028008;28;20053;-74
2022/04/11 12:20:19;;;;;;;4.72;1.30;;;;;;;;;;5042315;28;20124;-74
2022/04/11 12:23:01;;;;;;;4.88;1.42;;;;;;;;;;5038550;28;20053;-74
2022/04/11 12:25:31;;;;;;;2.97;1.15;;;;;;;;;;5041200;28;20053;-75
2022/04/11 12:28:11;;;;;;;4.43;1.27;;;;;;;;;;5040850;28;20102;-75
2022/04/11 12:30:39;;;;;;;4.15;1.80;;;;;;;;;;5040143;28;20390;-74
2022/04/11 12:33:06;;;;;;;5.55;1.17;;;;;;;;;;5035603;28;20548;-75
2022/04/11 12:35:32;;;;;;;3.85;1.23;;;;;;;;;;5038293;28;20145;-74
2022/04/11 12:38:01;;;;;;;1.95;0.90;;;;;;;;;;5036199;28;20053;-75
2022/04/11 12:40:41;;;;;;;7.97;1.48;;;;;;;;;;5038505;28;20539;-74
2022/04/11 12:43:22;;;;;;;3.58;1.23;;;;;;;;;;5038704;28;20049;-75
2022/04/11 12:46:10;;;;;;;4.40;1.40;;;;;;;;;;5040460;28;20135;-75
2022/04/11 12:48:58;;;;;;;6.22;1.67;;;;;;;;;;5037924;28;20048;-74
2022/04/11 12:51:31;;;;;;;5.40;1.50;;;;;;;;;;5038630;28;20540;-74
2022/04/11 12:54:08;;;;;;;8.63;1.65;;;;;;;;;;5039657;28;20124;-74
2022/04/11 12:56:42;;;;;;;2.70;1.23;;;;;;;;;;5039686;28;20081;-74
2022/04/11 12:59:08;;;;;;;3.72;1.80;;;;;;;;;;5038041;28;20045;-74
2022/04/11 13:01:54;;;;;;;4.03;1.53;;;;;;;;;;5040855;28;20049;-74
2022/04/11 13:04:21;;;;;;;7.18;1.80;;;;;;;;;;5039983;28;20505;-74
2022/04/11 13:06:49;;;;;;;4.03;1.45;;;;;;;;;;5037200;28;20132;-74
2022/04/11 13:09:20;;;;;;;6.30;1.55;;;;;;;;;;5044569;28;20099;-74
2022/04/11 13:11:55;;;;;;;7.90;1.70;;;;;;;;;;5045108;28;20057;-74
2022/04/11 13:14:31;;;;;;;4.57;1.20;;;;;;;;;;5044593;28;20057;-74
2022/04/11 13:19:43;;;;;;;4.90;1.67;;;;;;;;;;5040928;28;20059;-73
2022/04/11 13:22:10;;;;;;;5.00;1.67;;;;;;;;;;5042517;28;20081;-73
2022/04/11 13:24:36;;;;;;;4.15;1.65;;;;;;;;;;5041203;28;20128;-73
2022/04/11 13:27:03;;;;;;;4.72;1.58;;;;;;;;;;5043957;28;20140;-73
2022/04/11 13:29:31;;;;;;;4.13;1.37;;;;;;;;;;5043692;28;20132;-73
2022/04/11 13:32:00;;;;;;;3.95;1.42;;;;;;;;;;5038653;28;20147;-74
2022/04/11 13:34:27;;;;;;;5.20;1.60;;;;;;;;;;5044199;28;20049;-73
2022/04/11 13:37:00;;;;;;;5.03;1.67;;;;;;;;;;5041880;28;20137;-73
2022/04/11 13:39:47;;;;;;;6.65;1.60;;;;;;;;;;5041922;28;20518;-73
2022/04/11 13:42:14;;;;;;;5.32;1.80;;;;;;;;;;5040187;28;20092;-73
2022/04/11 13:44:40;;;;;;;4.90;1.50;;;;;;;;;;5038413;28;20075;-73
2022/04/11 13:47:07;;;;;;;6.25;1.38;;;;;;;;;;5041388;28;20052;-73
2022/04/11 13:49:34;;;;;;;5.27;1.80;;;;;;;;;;5041855;28;20502;-73
2022/04/11 13:52:08;;;;;;;5.95;1.27;;;;;;;;;;5043793;28;20057;-73
2022/04/11 13:54:35;;;;;;;6.13;2.10;;;;;;;;;;5043161;28;20131;-73
2022/04/11 13:57:02;;;;;;;6.72;1.75;;;;;;;;;;5039985;28;20299;-72
2022/04/11 13:59:28;;;;;;;4.70;1.67;;;;;;;;;;5042268;28;20053;-73
2022/04/11 14:01:56;;;;;;;6.57;2.35;;;;;;;;;;5041880;28;20124;-73
2022/04/11 14:04:24;;;;;;;8.70;1.70;;;;;;;;;;5043234;28;20068;-73
2022/04/11 14:06:50;;;;;;;4.75;1.80;;;;;;;;;;5046321;28;20133;-73
2022/04/11 14:09:18;;;;;;;4.45;1.50;;;;;;;;;;5041553;28;20084;-73
2022/04/11 14:12:03;;;;;;;6.07;1.45;;;;;;;;;;5043866;28;20052;-73
2022/04/11 14:14:37;;;;;;;8.15;2.80;;;;;;;;;;5040809;28;20111;-73
2022/04/11 14:17:03;;;;;;;5.60;1.95;;;;;;;;;;5041421;28;20049;-73
2022/04/11 14:19:30;;;;;;;5.40;1.77;;;;;;;;;;5040138;28;20128;-73
2022/04/11 14:22:00;;;;;;;3.70;1.80;;;;;;;;;;5041799;28;20381;-74
2022/04/11 14:24:27;;;;;;;5.03;1.60;;;;;;;;;;5041753;28;20055;-74
2022/04/11 14:26:53;;;;;;;7.90;2.25;;;;;;;;;;5042802;28;20326;-73
2022/04/11 14:29:23;;;;;;;6.97;1.70;;;;;;;;;;5044448;28;20053;-73
2022/04/11 14:31:49;;;;;;;8.63;1.73;;;;;;;;;;5039991;28;20049;-73
2022/04/11 14:34:16;;;;;;;8.38;1.58;;;;;;;;;;5040261;28;20498;-73
2022/04/11 14:36:44;;;;;;;5.00;1.60;;;;;;;;;;5037797;28;20093;-73
2022/04/11 14:39:12;;;;;;;9.23;1.75;;;;;;;;;;5040166;28;20107;-73
2022/04/11 14:41:39;;;;;;;6.50;1.57;;;;;;;;;;5047223;28;20559;-73
2022/04/11 14:44:13;;;;;;;7.38;2.40;;;;;;;;;;5044293;28;20708;-72
2022/04/11 14:46:39;;;;;;;6.95;2.13;;;;;;;;;;5038162;28;20060;-73
2022/04/11 14:49:06;;;;;;;6.35;2.38;;;;;;;;;;5042170;28;20044;-73
2022/04/11 14:51:59;;;;;;;5.72;1.77;;;;;;;;;;5045719;28;20056;-72
2022/04/11 14:54:25;;;;;;;7.18;1.50;;;;;;;;;;5040909;28;20444;-72